Bamberg, South Carolina
Current Conditions -  °F | °C
As of 12:53 PM on Sunday 21 Dec 2014 (Local Time) from KOGB Reporting Station
Overcast Overcast  
Wind Chill: 52°   Ceiling: 5500
Heat Index: 52°   Visibility: 10mi
Dew Point: 40°   Wind: 6mph
Humidity: 63%   Direction: NA
Pressure: 30.2"   Gusts: NA
Location:  33.3°N, 81.03°W
Report Text: KOGB 211753Z AUTO VRB05KT 10SM OVC055 11/04 A3020 RMK AO2 SLP225 T01110044 10111 20061 58021
Loading
Personal Weather Stations






























Interactive Weather Map New forecast layout! Learn more

10-Day Weather Forecast

Advertisements
Track Severe Weather on mobile